createdAt,value
2017-07-24T00:00:03.263Z,0
2017-07-24T00:00:51.620Z,0
2017-07-24T00:01:40.326Z,0
2017-07-24T00:02:28.411Z,0
2017-07-24T00:03:16.406Z,0
2017-07-24T00:04:05.497Z,0
2017-07-24T00:04:53.468Z,0
2017-07-24T00:05:41.511Z,0
2017-07-24T00:06:30.522Z,0
2017-07-24T00:07:18.649Z,0
2017-07-24T00:08:06.597Z,0
2017-07-24T00:08:55.642Z,0
2017-07-24T00:09:43.752Z,0
2017-07-24T00:10:31.680Z,0
2017-07-24T00:11:25.943Z,0
2017-07-24T00:12:13.847Z,0
2017-07-24T00:13:03.007Z,0
2017-07-24T00:13:50.950Z,0
2017-07-24T00:14:39.066Z,0
2017-07-24T00:15:27.084Z,0
2017-07-24T00:16:16.020Z,0
2017-07-24T00:17:04.159Z,0
2017-07-24T00:17:53.134Z,0
2017-07-24T00:18:40.897Z,0
2017-07-24T00:19:28.960Z,0
2017-07-24T00:20:18.347Z,0
2017-07-24T00:21:06.419Z,0
2017-07-24T00:21:54.086Z,0
2017-07-24T00:22:43.492Z,0
2017-07-24T00:23:31.543Z,0
2017-07-24T00:24:19.517Z,0
2017-07-24T00:25:08.567Z,0
2017-07-24T00:25:56.624Z,0
2017-07-24T00:26:44.620Z,0
2017-07-24T00:27:32.685Z,0
2017-07-24T00:28:21.695Z,0
2017-07-24T00:29:09.954Z,0
2017-07-24T00:29:57.824Z,0
2017-07-24T00:30:45.921Z,0
2017-07-24T00:31:39.808Z,0
2017-07-24T00:32:29.088Z,0
2017-07-24T00:33:16.963Z,0
2017-07-24T00:34:06.074Z,0
2017-07-24T00:34:54.032Z,0
2017-07-24T00:35:42.194Z,0
2017-07-24T00:36:30.190Z,0
2017-07-24T00:37:19.219Z,0
2017-07-24T00:38:07.359Z,0
2017-07-24T00:38:55.217Z,0
2017-07-24T00:39:44.341Z,0
2017-07-24T00:40:32.410Z,0
2017-07-24T00:41:20.473Z,0
2017-07-24T00:42:09.534Z,0
2017-07-24T00:42:57.453Z,0
2017-07-24T00:43:45.635Z,0
2017-07-24T00:44:34.613Z,0
2017-07-24T00:45:22.787Z,0
2017-07-24T00:46:10.679Z,0
2017-07-24T00:46:59.695Z,0
2017-07-24T00:47:53.739Z,0
2017-07-24T00:48:41.852Z,0
2017-07-24T00:49:29.863Z,0
2017-07-24T00:50:17.949Z,0
2017-07-24T00:51:06.957Z,0
2017-07-24T00:51:55.022Z,0
2017-07-24T00:52:43.054Z,0
2017-07-24T00:53:32.054Z,0
2017-07-24T00:54:20.220Z,0
2017-07-24T00:55:08.224Z,0
2017-07-24T00:55:56.256Z,0
2017-07-24T00:56:44.220Z,0
2017-07-24T00:57:32.578Z,0
2017-07-24T00:58:20.084Z,0
2017-07-24T00:59:07.900Z,0
2017-07-24T00:59:56.368Z,0
2017-07-24T01:00:43.952Z,0
2017-07-24T01:01:38.086Z,0
2017-07-24T01:02:27.168Z,0
2017-07-24T01:03:15.204Z,0
2017-07-24T01:04:04.233Z,0
2017-07-24T01:04:52.255Z,0
2017-07-24T01:05:40.362Z,0
2017-07-24T01:06:28.254Z,0
2017-07-24T01:07:28.476Z,0
2017-07-24T01:08:16.562Z,0
2017-07-24T01:09:04.501Z,0
2017-07-24T01:09:52.407Z,0
2017-07-24T01:10:40.435Z,0
2017-07-24T01:11:29.658Z,0
2017-07-24T01:12:17.638Z,0
2017-07-24T01:13:05.749Z,0
2017-07-24T01:13:53.826Z,0
2017-07-24T01:14:47.797Z,0
2017-07-24T01:15:37.194Z,0
2017-07-24T01:16:24.848Z,0
2017-07-24T01:17:14.328Z,0
2017-07-24T01:18:01.881Z,0
2017-07-24T01:18:49.870Z,0
2017-07-24T01:19:39.132Z,0
2017-07-24T01:20:27.040Z,0
2017-07-24T01:21:15.222Z,0
2017-07-24T01:22:04.613Z,0
2017-07-24T01:22:52.681Z,0
2017-07-24T01:23:40.216Z,0
2017-07-24T01:24:29.199Z,0
2017-07-24T01:25:17.627Z,0
2017-07-24T01:26:05.539Z,0
2017-07-24T01:26:54.349Z,0
2017-07-24T01:27:42.920Z,0
2017-07-24T01:28:30.478Z,0
2017-07-24T01:29:19.608Z,0
2017-07-24T01:30:07.618Z,0
2017-07-24T01:30:56.009Z,0
2017-07-24T01:31:44.663Z,0
2017-07-24T01:32:33.188Z,0
2017-07-24T01:33:20.733Z,0
2017-07-24T01:34:09.823Z,0
2017-07-24T01:34:57.830Z,0
2017-07-24T01:35:46.279Z,0
2017-07-24T01:36:34.962Z,0
2017-07-24T01:37:23.483Z,0
2017-07-24T01:38:11.037Z,0
2017-07-24T01:39:00.069Z,0
2017-07-24T01:39:48.160Z,0
2017-07-24T01:40:36.386Z,0
2017-07-24T01:41:25.274Z,0
2017-07-24T01:42:13.731Z,0
2017-07-24T01:43:01.316Z,0
2017-07-24T01:43:49.393Z,0
2017-07-24T01:44:38.372Z,0
2017-07-24T01:45:26.482Z,0
2017-07-24T01:46:15.810Z,0
2017-07-24T01:47:03.514Z,0
2017-07-24T01:47:53.142Z,0
2017-07-24T01:48:40.598Z,0
2017-07-24T01:49:28.577Z,0
2017-07-24T01:50:16.621Z,0
2017-07-24T01:51:06.091Z,0
2017-07-24T01:51:53.683Z,0
2017-07-24T01:52:41.930Z,0
2017-07-24T01:53:30.977Z,0
2017-07-24T01:54:19.126Z,0
2017-07-24T01:55:06.956Z,0
2017-07-24T01:55:56.000Z,0
2017-07-24T01:56:43.982Z,0
2017-07-24T01:57:32.582Z,0
2017-07-24T01:58:21.545Z,0
2017-07-24T01:59:09.179Z,0
2017-07-24T01:59:57.394Z,0
2017-07-24T02:00:46.281Z,0
2017-07-24T02:01:34.789Z,0
2017-07-24T02:02:22.516Z,0
2017-07-24T02:03:11.381Z,0
2017-07-24T02:03:59.455Z,0
2017-07-24T02:04:47.393Z,0
2017-07-24T02:05:35.465Z,0
2017-07-24T02:06:25.038Z,0
2017-07-24T02:07:13.031Z,0
2017-07-24T02:08:00.689Z,0
2017-07-24T02:08:50.059Z,0
2017-07-24T02:09:37.758Z,0
2017-07-24T02:10:26.844Z,0
2017-07-24T02:11:14.757Z,0
2017-07-24T02:12:02.882Z,0
2017-07-24T02:12:52.588Z,0
2017-07-24T02:13:39.968Z,0
2017-07-24T02:14:28.113Z,0
2017-07-24T02:15:16.997Z,0
2017-07-24T02:16:05.212Z,0
2017-07-24T02:16:53.570Z,0
2017-07-24T02:17:41.627Z,0
2017-07-24T02:18:30.474Z,0
2017-07-24T02:19:18.391Z,0
2017-07-24T02:20:07.328Z,0
2017-07-24T02:20:55.525Z,0
2017-07-24T02:21:44.063Z,0
2017-07-24T02:22:33.112Z,0
2017-07-24T02:23:20.791Z,0
2017-07-24T02:24:08.867Z,0
2017-07-24T02:24:57.937Z,0
2017-07-24T02:25:45.928Z,0
2017-07-24T02:26:34.114Z,0
2017-07-24T02:27:23.174Z,0
2017-07-24T02:28:11.262Z,0
2017-07-24T02:28:59.262Z,0
2017-07-24T02:29:48.261Z,0
2017-07-24T02:30:35.995Z,0
2017-07-24T02:31:24.311Z,0
2017-07-24T02:32:18.321Z,0
2017-07-24T02:33:12.187Z,0
2017-07-24T02:34:11.994Z,0
2017-07-24T02:35:07.676Z,0
2017-07-24T02:36:01.459Z,0
2017-07-24T02:36:56.415Z,0
2017-07-24T02:37:50.722Z,0
2017-07-24T02:38:45.282Z,0
2017-07-24T02:39:39.587Z,0
2017-07-24T02:40:34.759Z,0
2017-07-24T02:41:22.818Z,0
2017-07-24T02:42:10.925Z,0
2017-07-24T02:42:58.636Z,0
2017-07-24T02:43:47.762Z,0
2017-07-24T02:44:35.466Z,0
2017-07-24T02:45:23.494Z,0
2017-07-24T02:46:13.030Z,0
2017-07-24T02:47:00.963Z,0
2017-07-24T02:47:49.187Z,0
2017-07-24T02:48:38.105Z,0
2017-07-24T02:49:25.786Z,0
2017-07-24T02:50:13.901Z,0
2017-07-24T02:51:02.856Z,0
2017-07-24T02:51:50.916Z,0
2017-07-24T02:52:39.099Z,0
2017-07-24T02:53:28.195Z,0
2017-07-24T02:54:16.270Z,0
2017-07-24T02:55:04.143Z,0
2017-07-24T02:55:52.123Z,0
2017-07-24T02:56:41.199Z,0
2017-07-24T02:57:29.193Z,0
2017-07-24T02:58:18.765Z,0
2017-07-24T02:59:06.288Z,0
2017-07-24T02:59:54.368Z,0
2017-07-24T03:00:43.378Z,0
2017-07-24T03:01:31.482Z,0
2017-07-24T03:02:20.083Z,0
2017-07-24T03:03:08.488Z,0
2017-07-24T03:03:56.964Z,0
2017-07-24T03:04:44.633Z,4
2017-07-24T03:05:33.679Z,4
2017-07-24T03:06:21.844Z,4
2017-07-24T03:07:10.019Z,4
2017-07-24T03:07:57.774Z,4
2017-07-24T03:08:46.792Z,4
2017-07-24T03:09:34.821Z,4
2017-07-24T03:10:23.991Z,4
2017-07-24T03:11:11.939Z,4
2017-07-24T03:12:00.099Z,8
2017-07-24T03:12:47.940Z,4
2017-07-24T03:13:36.158Z,8
2017-07-24T03:14:30.111Z,8
2017-07-24T03:15:19.145Z,12
2017-07-24T03:16:07.270Z,8
2017-07-24T03:16:56.238Z,12
2017-07-24T03:17:44.333Z,12
2017-07-24T03:18:32.656Z,16
2017-07-24T03:19:21.898Z,16
2017-07-24T03:20:09.480Z,20
2017-07-24T03:20:57.433Z,20
2017-07-24T03:21:46.775Z,24
2017-07-24T03:22:34.859Z,28
2017-07-24T03:23:25.442Z,32
2017-07-24T03:24:11.594Z,32
2017-07-24T03:24:59.707Z,40
2017-07-24T03:25:48.188Z,40
2017-07-24T03:26:41.832Z,48
2017-07-24T03:27:29.778Z,52
2017-07-24T03:28:18.922Z,52
2017-07-24T03:29:06.974Z,56
2017-07-24T03:29:54.899Z,60
2017-07-24T03:30:44.020Z,68
2017-07-24T03:31:32.002Z,72
2017-07-24T03:32:20.114Z,80
2017-07-24T03:33:08.134Z,84
2017-07-24T03:33:57.082Z,92
2017-07-24T03:34:45.217Z,96
2017-07-24T03:35:33.189Z,104
2017-07-24T03:36:22.420Z,104
2017-07-24T03:37:10.882Z,108
2017-07-24T03:37:59.756Z,112
2017-07-24T03:38:54.501Z,120
2017-07-24T03:39:55.637Z,128
2017-07-24T03:40:44.457Z,136
2017-07-24T03:41:32.560Z,140
2017-07-24T03:42:20.946Z,148
2017-07-24T03:43:09.986Z,156
2017-07-24T03:43:58.028Z,164
2017-07-24T03:44:46.108Z,168
2017-07-24T03:45:35.246Z,176
2017-07-24T03:46:23.221Z,188
2017-07-24T03:47:11.380Z,196
2017-07-24T03:48:00.351Z,204
2017-07-24T03:49:00.307Z,216
2017-07-24T03:49:55.451Z,224
2017-07-24T03:50:50.479Z,240
2017-07-24T03:51:50.570Z,252
2017-07-24T03:52:45.501Z,268
2017-07-24T03:53:40.656Z,284
2017-07-24T03:54:34.470Z,304
2017-07-24T03:55:34.646Z,324
2017-07-24T03:56:29.693Z,352
2017-07-24T03:57:29.443Z,376
2017-07-24T03:58:30.296Z,400
2017-07-24T03:59:24.386Z,416
2017-07-24T04:00:24.413Z,436
2017-07-24T04:01:19.632Z,456
2017-07-24T04:02:14.996Z,476
2017-07-24T04:03:14.975Z,500
2017-07-24T04:04:14.490Z,532
2017-07-24T04:05:08.587Z,560
2017-07-24T04:06:08.581Z,620
2017-07-24T04:07:04.041Z,656
2017-07-24T04:07:59.132Z,696
2017-07-24T04:08:53.173Z,732
2017-07-24T04:09:53.172Z,772
2017-07-24T04:10:47.815Z,800
2017-07-24T04:11:47.770Z,836
2017-07-24T04:12:47.850Z,884
2017-07-24T04:13:47.886Z,948
2017-07-24T04:14:42.083Z,1020
2017-07-24T04:15:42.031Z,1128
2017-07-24T04:16:36.204Z,1224
2017-07-24T04:17:31.210Z,1284
2017-07-24T04:18:19.398Z,1324
2017-07-24T04:19:13.178Z,1380
2017-07-24T04:20:01.243Z,1452
2017-07-24T04:20:49.202Z,1508
2017-07-24T04:21:38.346Z,1616
2017-07-24T04:22:33.261Z,1768
2017-07-24T04:23:34.283Z,1988
2017-07-24T04:24:34.347Z,2208
2017-07-24T04:25:29.646Z,2340
2017-07-24T04:26:29.671Z,2420
2017-07-24T04:27:30.859Z,2480
2017-07-24T04:28:24.442Z,2500
2017-07-24T04:29:24.525Z,2464
2017-07-24T04:30:20.118Z,2404
2017-07-24T04:31:08.162Z,2312
2017-07-24T04:32:08.205Z,2244
2017-07-24T04:33:03.060Z,2268
2017-07-24T04:33:58.072Z,2360
2017-07-24T04:34:58.214Z,2368
2017-07-24T04:36:04.372Z,2200
2017-07-24T04:36:58.308Z,2132
2017-07-24T04:37:52.424Z,2112
2017-07-24T04:38:47.379Z,2080
2017-07-24T04:39:41.490Z,2152
2017-07-24T04:40:29.550Z,2180
2017-07-24T04:41:23.488Z,2328
2017-07-24T04:42:11.682Z,2428
2017-07-24T04:42:59.188Z,2492
2017-07-24T04:43:47.319Z,2560
2017-07-24T04:44:36.211Z,2560
2017-07-24T04:45:24.665Z,2580
2017-07-24T04:46:12.318Z,2644
2017-07-24T04:47:01.431Z,2776
2017-07-24T04:47:49.733Z,2864
2017-07-24T04:48:37.757Z,2944
2017-07-24T04:49:25.501Z,2904
2017-07-24T04:50:19.898Z,2708
2017-07-24T04:51:21.030Z,2544
2017-07-24T04:52:22.004Z,2396
2017-07-24T04:53:17.047Z,2248
2017-07-24T04:54:06.191Z,2216
2017-07-24T04:55:00.164Z,2180
2017-07-24T04:55:53.854Z,2160
2017-07-24T04:56:53.884Z,2240
2017-07-24T04:57:49.303Z,2212
2017-07-24T04:58:48.976Z,2136
2017-07-24T04:59:42.983Z,2036
2017-07-24T05:00:43.106Z,1916
2017-07-24T05:01:38.204Z,1868
2017-07-24T05:02:38.025Z,1848
2017-07-24T05:03:39.508Z,1924
2017-07-24T05:04:40.127Z,2044
2017-07-24T05:05:41.123Z,2164
2017-07-24T05:06:35.161Z,2288
2017-07-24T05:07:35.227Z,2392
2017-07-24T05:08:30.414Z,2588
2017-07-24T05:09:18.391Z,2748
2017-07-24T05:10:12.357Z,2916
2017-07-24T05:11:00.461Z,3048
2017-07-24T05:11:49.818Z,3144
2017-07-24T05:12:38.507Z,3184
2017-07-24T05:13:32.948Z,3100
2017-07-24T05:14:21.934Z,3000
2017-07-24T05:15:09.647Z,2916
2017-07-24T05:15:58.012Z,2948
2017-07-24T05:16:47.144Z,2932
2017-07-24T05:17:42.146Z,2892
2017-07-24T05:18:42.188Z,2928
2017-07-24T05:19:31.236Z,2960
2017-07-24T05:20:20.378Z,2864
2017-07-24T05:21:08.376Z,2792
2017-07-24T05:22:02.367Z,2700
2017-07-24T05:22:50.461Z,2636
2017-07-24T05:23:39.379Z,2564
2017-07-24T05:24:27.608Z,2476
2017-07-24T05:25:16.257Z,2392
2017-07-24T05:26:10.224Z,2340
2017-07-24T05:27:05.351Z,2316
2017-07-24T05:27:54.167Z,2376
2017-07-24T05:28:42.509Z,2556
2017-07-24T05:29:30.356Z,2796
2017-07-24T05:30:18.495Z,2972
2017-07-24T05:31:06.441Z,3060
2017-07-24T05:31:55.516Z,3048
2017-07-24T05:32:49.601Z,2948
2017-07-24T05:33:43.499Z,2796
2017-07-24T05:34:37.588Z,2664
2017-07-24T05:35:25.783Z,2576
2017-07-24T05:36:25.739Z,2452
2017-07-24T05:37:20.142Z,2484
2017-07-24T05:38:08.110Z,2556
2017-07-24T05:39:07.853Z,2736
2017-07-24T05:40:02.804Z,2840
2017-07-24T05:41:03.045Z,2780
2017-07-24T05:41:56.966Z,2724
2017-07-24T05:42:46.046Z,2720
2017-07-24T05:43:35.077Z,2708
2017-07-24T05:44:23.099Z,2776
2017-07-24T05:45:11.069Z,2720
2017-07-24T05:45:59.155Z,2688
2017-07-24T05:46:48.269Z,2724
2017-07-24T05:47:36.450Z,2812
2017-07-24T05:48:25.251Z,2992
2017-07-24T05:49:20.407Z,3324
2017-07-24T05:50:09.371Z,3796
2017-07-24T05:51:04.443Z,3840
2017-07-24T05:51:58.521Z,4388
2017-07-24T05:52:46.911Z,4344
2017-07-24T05:53:40.509Z,4268
2017-07-24T05:54:41.533Z,4204
2017-07-24T05:55:36.961Z,4016
2017-07-24T05:56:37.050Z,3964
2017-07-24T05:57:36.742Z,4080
2017-07-24T05:58:36.803Z,4172
2017-07-24T05:59:36.694Z,4264
2017-07-24T06:00:36.923Z,4228
2017-07-24T06:01:31.876Z,3940
2017-07-24T06:02:19.953Z,3968
2017-07-24T06:03:08.980Z,4248
2017-07-24T06:03:58.119Z,4380
2017-07-24T06:04:53.209Z,4344
2017-07-24T06:05:41.018Z,4264
2017-07-24T06:06:41.027Z,4216
2017-07-24T06:07:35.156Z,3952
2017-07-24T06:08:36.599Z,3452
2017-07-24T06:09:36.160Z,3300
2017-07-24T06:10:36.321Z,3232
2017-07-24T06:11:30.217Z,3084
2017-07-24T06:12:30.357Z,3188
2017-07-24T06:13:24.360Z,3484
2017-07-24T06:14:18.670Z,3976
2017-07-24T06:15:07.742Z,4340
2017-07-24T06:16:02.974Z,4444
2017-07-24T06:16:56.446Z,4492
2017-07-24T06:17:51.044Z,4796
2017-07-24T06:18:44.544Z,5412
2017-07-24T06:19:39.895Z,5748
2017-07-24T06:20:39.638Z,6564
2017-07-24T06:21:33.684Z,6816
2017-07-24T06:22:29.176Z,7076
2017-07-24T06:23:17.793Z,7164
2017-07-24T06:24:06.904Z,7372
2017-07-24T06:24:56.126Z,7692
2017-07-24T06:25:49.912Z,7812
2017-07-24T06:26:43.986Z,7644
2017-07-24T06:27:45.044Z,7440
2017-07-24T06:28:45.010Z,7376
2017-07-24T06:29:45.041Z,7212
2017-07-24T06:30:45.503Z,7036
2017-07-24T06:31:45.173Z,6868
2017-07-24T06:32:45.212Z,6660
2017-07-24T06:33:45.257Z,6928
2017-07-24T06:34:45.563Z,7052
2017-07-24T06:35:45.436Z,7108
2017-07-24T06:36:45.322Z,7196
2017-07-24T06:37:45.581Z,7196
2017-07-24T06:38:45.391Z,7204
2017-07-24T06:39:45.435Z,7320
2017-07-24T06:40:45.700Z,7432
2017-07-24T06:41:45.907Z,7696
2017-07-24T06:42:34.683Z,7844
2017-07-24T06:43:23.056Z,7832
2017-07-24T06:44:10.627Z,7876
2017-07-24T06:44:59.748Z,7604
2017-07-24T06:45:54.737Z,7168
2017-07-24T06:46:54.640Z,6680
2017-07-24T06:47:54.867Z,6360
2017-07-24T06:48:48.882Z,6348
2017-07-24T06:49:36.878Z,6612
2017-07-24T06:50:30.873Z,6652
2017-07-24T06:51:19.942Z,6340
2017-07-24T06:52:14.546Z,5872
2017-07-24T06:53:13.997Z,5992
2017-07-24T06:54:08.201Z,6212
2017-07-24T06:55:08.325Z,6412
2017-07-24T06:56:08.223Z,6792
2017-07-24T06:57:08.229Z,7256
2017-07-24T06:57:56.428Z,7632
2017-07-24T06:58:44.369Z,7584
2017-07-24T06:59:32.501Z,6976
2017-07-24T07:00:21.614Z,6752
2017-07-24T07:01:15.432Z,6596
2017-07-24T07:02:10.689Z,7024
2017-07-24T07:02:59.802Z,7788
2017-07-24T07:03:53.605Z,8160
2017-07-24T07:04:43.180Z,8076
2017-07-24T07:05:31.593Z,8076
2017-07-24T07:06:21.068Z,7920
2017-07-24T07:07:08.766Z,7888
2017-07-24T07:07:58.190Z,7444
2017-07-24T07:08:46.795Z,7036
2017-07-24T07:09:41.325Z,7096
2017-07-24T07:10:29.937Z,8040
2017-07-24T07:11:18.020Z,8860
2017-07-24T07:12:18.603Z,9840
2017-07-24T07:13:13.464Z,10732
2017-07-24T07:14:01.337Z,11248
2017-07-24T07:14:50.201Z,11696
2017-07-24T07:15:44.523Z,11924
2017-07-24T07:16:44.197Z,12320
2017-07-24T07:17:44.688Z,12312
2017-07-24T07:18:33.544Z,12304
2017-07-24T07:19:22.423Z,11764
2017-07-24T07:20:11.385Z,11636
2017-07-24T07:20:59.446Z,11720
2017-07-24T07:21:48.464Z,11636
2017-07-24T07:22:37.011Z,11416
2017-07-24T07:23:30.796Z,11376
2017-07-24T07:24:25.044Z,11120
2017-07-24T07:25:14.185Z,10844
2017-07-24T07:26:02.254Z,10952
2017-07-24T07:26:51.255Z,11196
2017-07-24T07:27:40.155Z,10800
2017-07-24T07:28:34.221Z,10548
2017-07-24T07:29:29.417Z,10284
2017-07-24T07:30:24.351Z,10168
2017-07-24T07:31:13.594Z,10092
2017-07-24T07:32:13.561Z,9944
2017-07-24T07:33:07.197Z,9836
2017-07-24T07:34:08.169Z,9732
2017-07-24T07:35:08.182Z,9712
2017-07-24T07:36:03.277Z,9496
2017-07-24T07:36:58.371Z,9416
2017-07-24T07:37:59.648Z,9444
2017-07-24T07:38:59.700Z,9516
2017-07-24T07:39:54.892Z,9636
2017-07-24T07:40:50.504Z,9596
2017-07-24T07:41:49.840Z,9636
2017-07-24T07:42:44.862Z,9788
2017-07-24T07:43:39.861Z,9856
2017-07-24T07:44:28.846Z,10104
2017-07-24T07:45:22.920Z,10292
2017-07-24T07:46:23.050Z,10540
2017-07-24T07:47:17.383Z,10608
2017-07-24T07:48:17.200Z,10804
2017-07-24T07:49:12.242Z,10916
2017-07-24T07:50:24.278Z,10912
2017-07-24T07:51:19.204Z,11028
2017-07-24T07:52:14.394Z,11056
2017-07-24T07:53:14.238Z,11344
2017-07-24T07:54:09.480Z,11496
2017-07-24T07:55:04.404Z,11272
2017-07-24T07:56:04.514Z,11268
2017-07-24T07:57:04.440Z,11084
2017-07-24T07:57:58.486Z,10960
2017-07-24T07:58:58.666Z,10748
2017-07-24T07:59:53.624Z,11024
2017-07-24T08:00:59.720Z,11080
2017-07-24T08:01:59.798Z,11280
2017-07-24T08:03:00.697Z,11392
2017-07-24T08:04:01.753Z,11480
2017-07-24T08:05:02.126Z,11608
2017-07-24T08:06:01.888Z,11804
2017-07-24T08:06:55.920Z,11864
2017-07-24T08:07:56.882Z,11756
2017-07-24T08:08:57.014Z,11472
2017-07-24T08:09:52.072Z,12008
2017-07-24T08:10:47.027Z,11988
2017-07-24T08:11:48.159Z,12188
2017-07-24T08:12:48.063Z,12200
2017-07-24T08:13:43.087Z,12164
2017-07-24T08:14:38.102Z,12236
2017-07-24T08:15:38.224Z,12076
2017-07-24T08:16:33.449Z,11644
2017-07-24T08:17:28.297Z,11472
2017-07-24T08:18:22.401Z,11132
2017-07-24T08:19:23.423Z,11284
2017-07-24T08:20:18.380Z,11316
2017-07-24T08:21:18.464Z,11376
2017-07-24T08:22:07.810Z,11508
2017-07-24T08:22:56.538Z,11640
2017-07-24T08:23:44.614Z,11792
2017-07-24T08:24:32.731Z,11936
2017-07-24T08:25:21.760Z,11736
2017-07-24T08:26:09.834Z,12312
2017-07-24T08:26:58.803Z,12512
2017-07-24T08:27:58.785Z,12944
2017-07-24T08:28:47.912Z,13000
2017-07-24T08:29:35.974Z,13172
2017-07-24T08:30:25.102Z,13472
2017-07-24T08:31:25.004Z,12992
2017-07-24T08:32:19.261Z,12952
2017-07-24T08:33:14.110Z,12796
2017-07-24T08:34:09.135Z,12792
2017-07-24T08:35:09.142Z,12640
2017-07-24T08:36:10.330Z,12896
2017-07-24T08:37:10.255Z,12764
2017-07-24T08:38:05.361Z,13596
2017-07-24T08:39:05.329Z,13484
2017-07-24T08:40:00.428Z,13760
2017-07-24T08:40:55.493Z,13832
2017-07-24T08:41:49.471Z,13896
2017-07-24T08:42:49.504Z,14792
2017-07-24T08:43:44.344Z,15096
2017-07-24T08:44:44.197Z,15568
2017-07-24T08:45:44.411Z,16016
2017-07-24T08:46:33.642Z,16416
2017-07-24T08:47:21.760Z,16896
2017-07-24T08:48:21.689Z,17760
2017-07-24T08:49:21.815Z,19040
2017-07-24T08:50:15.793Z,19232
2017-07-24T08:51:09.862Z,19936
2017-07-24T08:52:03.909Z,20224
2017-07-24T08:52:52.785Z,20128
2017-07-24T08:53:47.993Z,20000
2017-07-24T08:54:47.961Z,19776
2017-07-24T08:55:37.163Z,19520
2017-07-24T08:56:24.979Z,19392
2017-07-24T08:57:20.560Z,19072
2017-07-24T08:58:15.249Z,18976
2017-07-24T08:59:09.258Z,19392
2017-07-24T09:00:04.019Z,19424
2017-07-24T09:01:04.434Z,19520
2017-07-24T09:01:53.475Z,19584
2017-07-24T09:02:42.393Z,19456
2017-07-24T09:03:36.442Z,19648
2017-07-24T09:04:31.495Z,19840
2017-07-24T09:05:20.414Z,20096
2017-07-24T09:06:20.772Z,20128
2017-07-24T09:07:08.735Z,20224
2017-07-24T09:07:57.217Z,20064
2017-07-24T09:08:51.665Z,20384
2017-07-24T09:09:40.521Z,20704
2017-07-24T09:10:46.629Z,20128
2017-07-24T09:11:42.229Z,20032
2017-07-24T09:12:30.976Z,19840
2017-07-24T09:13:19.975Z,19808
2017-07-24T09:14:13.999Z,20128
2017-07-24T09:15:02.082Z,20032
2017-07-24T09:15:50.101Z,19936
2017-07-24T09:16:39.188Z,19968
2017-07-24T09:17:28.367Z,19808
2017-07-24T09:18:22.285Z,19520
2017-07-24T09:19:16.323Z,19488
2017-07-24T09:20:05.359Z,20192
2017-07-24T09:20:54.369Z,20064
2017-07-24T09:21:48.453Z,19968
2017-07-24T09:22:43.526Z,20416
2017-07-24T09:23:37.496Z,20448
2017-07-24T09:24:25.568Z,20416
2017-07-24T09:25:19.531Z,19488
2017-07-24T09:26:14.518Z,19776
2017-07-24T09:27:08.775Z,19968
2017-07-24T09:28:03.738Z,19616
2017-07-24T09:28:51.780Z,19328
2017-07-24T09:29:51.889Z,19648
2017-07-24T09:30:46.905Z,19936
2017-07-24T09:31:34.895Z,21248
2017-07-24T09:32:34.914Z,20800
2017-07-24T09:33:30.023Z,20256
2017-07-24T09:34:30.062Z,19488
2017-07-24T09:35:25.058Z,18880
2017-07-24T09:36:19.074Z,18976
2017-07-24T09:37:20.310Z,19328
2017-07-24T09:38:14.173Z,19232
2017-07-24T09:39:14.306Z,19136
2017-07-24T09:40:03.288Z,19136
2017-07-24T09:40:57.346Z,19328
2017-07-24T09:41:52.416Z,19136
2017-07-24T09:42:40.621Z,19008
2017-07-24T09:43:34.480Z,19264
2017-07-24T09:44:34.578Z,18880
2017-07-24T09:45:22.116Z,18848
2017-07-24T09:46:22.089Z,18528
2017-07-24T09:47:17.738Z,18752
2017-07-24T09:48:06.662Z,18464
2017-07-24T09:49:01.738Z,18208
2017-07-24T09:50:01.897Z,17920
2017-07-24T09:50:56.807Z,17600
2017-07-24T09:51:51.838Z,16928
2017-07-24T09:52:45.860Z,16448
2017-07-24T09:53:45.845Z,16256
2017-07-24T09:54:41.002Z,15728
2017-07-24T09:55:30.049Z,16008
2017-07-24T09:56:24.273Z,15876
2017-07-24T09:57:18.195Z,15740
2017-07-24T09:58:18.245Z,15696
2017-07-24T09:59:07.269Z,16512
2017-07-24T09:59:56.249Z,16896
2017-07-24T10:00:44.533Z,17408
2017-07-24T10:01:44.432Z,17632
2017-07-24T10:02:39.398Z,16704
2017-07-24T10:03:33.570Z,16800
2017-07-24T10:04:33.508Z,16640
2017-07-24T10:05:22.552Z,17408
2017-07-24T10:06:16.565Z,17568
2017-07-24T10:07:11.555Z,18880
2017-07-24T10:08:05.576Z,19680
2017-07-24T10:08:53.707Z,20256
2017-07-24T10:09:41.835Z,19584
2017-07-24T10:10:29.762Z,20096
2017-07-24T10:11:18.813Z,20384
2017-07-24T10:12:07.859Z,22496
2017-07-24T10:12:56.870Z,23168
2017-07-24T10:13:57.022Z,23424
2017-07-24T10:14:46.031Z,23648
2017-07-24T10:15:40.035Z,24064
2017-07-24T10:16:35.164Z,24480
2017-07-24T10:17:30.223Z,24384
2017-07-24T10:18:24.786Z,24192
2017-07-24T10:19:25.272Z,24320
2017-07-24T10:20:19.326Z,23968
2017-07-24T10:21:13.422Z,23456
2017-07-24T10:22:07.734Z,25408
2017-07-24T10:22:56.396Z,24704
2017-07-24T10:23:45.500Z,23584
2017-07-24T10:24:34.572Z,23168
2017-07-24T10:25:23.514Z,22432
2017-07-24T10:26:11.589Z,21792
2017-07-24T10:27:05.684Z,21152
2017-07-24T10:27:54.654Z,20032
2017-07-24T10:28:48.898Z,19200
2017-07-24T10:29:48.873Z,19008
2017-07-24T10:30:43.852Z,18400
2017-07-24T10:31:37.915Z,18368
2017-07-24T10:32:32.901Z,18752
2017-07-24T10:33:33.260Z,19744
2017-07-24T10:34:33.008Z,20416
2017-07-24T10:35:26.961Z,20256
2017-07-24T10:36:27.176Z,21216
2017-07-24T10:37:27.233Z,21152
2017-07-24T10:38:21.229Z,21760
2017-07-24T10:39:21.618Z,22016
2017-07-24T10:40:21.290Z,22592
2017-07-24T10:41:10.252Z,24064
2017-07-24T10:42:05.333Z,25504
2017-07-24T10:42:59.382Z,27360
2017-07-24T10:43:53.432Z,28480
2017-07-24T10:44:48.496Z,28576
2017-07-24T10:45:37.427Z,30784
2017-07-24T10:46:26.629Z,32096
2017-07-24T10:47:20.666Z,32896
2017-07-24T10:48:14.727Z,36192
2017-07-24T10:49:09.723Z,34368
2017-07-24T10:50:09.918Z,34880
2017-07-24T10:51:04.828Z,35232
2017-07-24T10:51:53.699Z,35200
2017-07-24T10:52:47.997Z,34880
2017-07-24T10:53:41.952Z,34752
2017-07-24T10:54:30.068Z,34464
2017-07-24T10:55:19.364Z,34368
2017-07-24T10:56:19.101Z,34176
2017-07-24T10:57:13.120Z,34432
2017-07-24T10:58:14.267Z,35296
2017-07-24T10:59:03.299Z,35392
2017-07-24T10:59:58.307Z,35264
2017-07-24T11:00:52.357Z,35040
2017-07-24T11:01:40.411Z,34816
2017-07-24T11:02:29.470Z,34464
2017-07-24T11:03:17.470Z,34272
2017-07-24T11:04:11.579Z,33728
2017-07-24T11:05:11.518Z,33408
2017-07-24T11:06:01.482Z,33184
2017-07-24T11:06:55.638Z,32704
2017-07-24T11:08:01.706Z,32896
2017-07-24T11:08:56.693Z,32704
2017-07-24T11:09:50.749Z,32416
2017-07-24T11:10:45.811Z,31936
2017-07-24T11:11:40.110Z,31648
2017-07-24T11:12:28.898Z,31072
2017-07-24T11:13:16.991Z,29472
2017-07-24T11:14:06.154Z,28064
2017-07-24T11:15:00.064Z,27360
2017-07-24T11:16:01.314Z,27392
2017-07-24T11:16:50.201Z,27616
2017-07-24T11:17:50.293Z,28384
2017-07-24T11:18:44.264Z,29632
2017-07-24T11:19:44.292Z,29952
2017-07-24T11:20:38.356Z,30240
2017-07-24T11:21:38.444Z,30784
2017-07-24T11:22:33.495Z,31936
2017-07-24T11:23:27.538Z,33440
2017-07-24T11:24:33.485Z,35552
2017-07-24T11:25:27.616Z,36448
2017-07-24T11:26:21.614Z,36672
2017-07-24T11:27:15.683Z,36896
2017-07-24T11:28:09.782Z,37216
2017-07-24T11:29:03.765Z,36928
2017-07-24T11:30:03.811Z,36256
2017-07-24T11:30:52.898Z,35520
2017-07-24T11:31:42.007Z,34880
2017-07-24T11:32:30.943Z,33440
2017-07-24T11:33:26.051Z,31776
2017-07-24T11:34:20.153Z,30560
2017-07-24T11:35:09.093Z,29568
2017-07-24T11:35:58.195Z,29280
2017-07-24T11:36:52.161Z,29408
2017-07-24T11:37:47.315Z,29856
2017-07-24T11:38:36.392Z,29888
2017-07-24T11:39:36.311Z,29632
2017-07-24T11:40:36.409Z,29792
2017-07-24T11:41:25.595Z,31008
2017-07-24T11:42:19.616Z,32480
2017-07-24T11:43:08.535Z,33280
2017-07-24T11:44:02.588Z,34528
2017-07-24T11:44:56.568Z,35168
2017-07-24T11:45:51.799Z,35200
2017-07-24T11:46:51.760Z,34816
2017-07-24T11:47:40.888Z,34624
2017-07-24T11:48:29.888Z,34624
2017-07-24T11:49:24.152Z,35040
2017-07-24T11:50:24.005Z,35008
2017-07-24T11:51:12.058Z,35488
2017-07-24T11:52:06.021Z,36800